sensor_id;sensor_type;location;lat;lon;timestamp;P1;durP1;ratioP1;P2;durP2;ratioP2
48205;SDS011;33995;48.202;16.260;2022-09-23T00:01:13;4.30;;;3.90;;
48205;SDS011;33995;48.202;16.260;2022-09-23T00:03:41;4.07;;;3.77;;
48205;SDS011;33995;48.202;16.260;2022-09-23T00:06:14;4.90;;;4.13;;
48205;SDS011;33995;48.202;16.260;2022-09-23T00:08:46;4.30;;;3.90;;
48205;SDS011;33995;48.202;16.260;2022-09-23T00:11:16;4.77;;;4.27;;
48205;SDS011;33995;48.202;16.260;2022-09-23T00:13:46;6.70;;;4.17;;
48205;SDS011;33995;48.202;16.260;2022-09-23T00:16:17;6.17;;;4.60;;
48205;SDS011;33995;48.202;16.260;2022-09-23T00:18:46;5.00;;;4.50;;
48205;SDS011;33995;48.202;16.260;2022-09-23T00:21:18;4.30;;;3.90;;
48205;SDS011;33995;48.202;16.260;2022-09-23T00:23:47;5.03;;;3.60;;
48205;SDS011;33995;48.202;16.260;2022-09-23T00:26:16;4.30;;;3.90;;
48205;SDS011;33995;48.202;16.260;2022-09-23T00:28:45;4.07;;;3.67;;
48205;SDS011;33995;48.202;16.260;2022-09-23T00:31:14;4.20;;;3.80;;
48205;SDS011;33995;48.202;16.260;2022-09-23T00:33:56;6.03;;;3.50;;
48205;SDS011;33995;48.202;16.260;2022-09-23T00:36:25;4.13;;;3.73;;
48205;SDS011;33995;48.202;16.260;2022-09-23T00:38:53;3.97;;;3.60;;
48205;SDS011;33995;48.202;16.260;2022-09-23T00:41:21;4.30;;;3.60;;
48205;SDS011;33995;48.202;16.260;2022-09-23T00:43:50;4.20;;;3.80;;
48205;SDS011;33995;48.202;16.260;2022-09-23T00:49:12;4.57;;;4.00;;
48205;SDS011;33995;48.202;16.260;2022-09-23T00:51:54;4.10;;;3.70;;
48205;SDS011;33995;48.202;16.260;2022-09-23T00:54:27;4.23;;;3.60;;
48205;SDS011;33995;48.202;16.260;2022-09-23T00:56:55;4.00;;;3.57;;
48205;SDS011;33995;48.202;16.260;2022-09-23T00:59:24;4.60;;;3.50;;
48205;SDS011;33995;48.202;16.260;2022-09-23T01:01:54;4.60;;;3.63;;
48205;SDS011;33995;48.202;16.260;2022-09-23T01:04:23;4.03;;;3.67;;
48205;SDS011;33995;48.202;16.260;2022-09-23T01:06:53;4.63;;;3.63;;
48205;SDS011;33995;48.202;16.260;2022-09-23T01:09:20;5.80;;;3.30;;
48205;SDS011;33995;48.202;16.260;2022-09-23T01:12:11;3.80;;;3.50;;
48205;SDS011;33995;48.202;16.260;2022-09-23T01:15:17;4.07;;;3.40;;
48205;SDS011;33995;48.202;16.260;2022-09-23T01:18:11;3.87;;;3.37;;
48205;SDS011;33995;48.202;16.260;2022-09-23T01:37:25;3.77;;;3.30;;
48205;SDS011;33995;48.202;16.260;2022-09-23T01:40:11;3.80;;;3.40;;
48205;SDS011;33995;48.202;16.260;2022-09-23T01:45:37;3.27;;;2.97;;
48205;SDS011;33995;48.202;16.260;2022-09-23T01:48:48;4.00;;;3.27;;
48205;SDS011;33995;48.202;16.260;2022-09-23T01:51:31;3.50;;;3.20;;
48205;SDS011;33995;48.202;16.260;2022-09-23T01:56:58;3.40;;;3.10;;
48205;SDS011;33995;48.202;16.260;2022-09-23T01:59:32;4.70;;;3.50;;
48205;SDS011;33995;48.202;16.260;2022-09-23T02:04:53;3.50;;;3.20;;
48205;SDS011;33995;48.202;16.260;2022-09-23T02:07:35;5.20;;;3.60;;
48205;SDS011;33995;48.202;16.260;2022-09-23T02:10:15;5.33;;;3.63;;
48205;SDS011;33995;48.202;16.260;2022-09-23T02:12:57;5.17;;;3.80;;
48205;SDS011;33995;48.202;16.260;2022-09-23T02:15:32;3.87;;;3.40;;
48205;SDS011;33995;48.202;16.260;2022-09-23T02:18:05;4.00;;;3.60;;
48205;SDS011;33995;48.202;16.260;2022-09-23T02:20:40;5.10;;;3.37;;
48205;SDS011;33995;48.202;16.260;2022-09-23T02:23:10;3.37;;;3.07;;
48205;SDS011;33995;48.202;16.260;2022-09-23T02:28:36;3.37;;;3.07;;
48205;SDS011;33995;48.202;16.260;2022-09-23T02:39:50;3.40;;;3.10;;
48205;SDS011;33995;48.202;16.260;2022-09-23T02:42:25;5.20;;;3.30;;
48205;SDS011;33995;48.202;16.260;2022-09-23T02:45:17;4.17;;;3.50;;
48205;SDS011;33995;48.202;16.260;2022-09-23T02:47:46;4.53;;;3.20;;
48205;SDS011;33995;48.202;16.260;2022-09-23T02:50:19;4.57;;;3.37;;
48205;SDS011;33995;48.202;16.260;2022-09-23T02:52:48;3.57;;;3.27;;
48205;SDS011;33995;48.202;16.260;2022-09-23T02:55:15;4.67;;;3.13;;
48205;SDS011;33995;48.202;16.260;2022-09-23T02:57:44;4.13;;;3.50;;
48205;SDS011;33995;48.202;16.260;2022-09-23T03:00:12;3.57;;;3.27;;
48205;SDS011;33995;48.202;16.260;2022-09-23T03:02:46;3.57;;;3.27;;
48205;SDS011;33995;48.202;16.260;2022-09-23T03:05:33;3.70;;;3.40;;
48205;SDS011;33995;48.202;16.260;2022-09-23T03:11:06;3.50;;;3.20;;
48205;SDS011;33995;48.202;16.260;2022-09-23T03:22:04;4.07;;;3.10;;
48205;SDS011;33995;48.202;16.260;2022-09-23T03:24:39;3.63;;;3.33;;
48205;SDS011;33995;48.202;16.260;2022-09-23T03:27:13;3.53;;;3.23;;
48205;SDS011;33995;48.202;16.260;2022-09-23T03:29:46;3.53;;;3.23;;
48205;SDS011;33995;48.202;16.260;2022-09-23T03:32:16;3.47;;;3.13;;
48205;SDS011;33995;48.202;16.260;2022-09-23T03:34:47;3.67;;;3.37;;
48205;SDS011;33995;48.202;16.260;2022-09-23T03:40:08;5.33;;;3.10;;
48205;SDS011;33995;48.202;16.260;2022-09-23T03:42:40;3.47;;;3.17;;
48205;SDS011;33995;48.202;16.260;2022-09-23T03:45:09;3.53;;;3.23;;
48205;SDS011;33995;48.202;16.260;2022-09-23T03:47:39;3.57;;;3.23;;
48205;SDS011;33995;48.202;16.260;2022-09-23T03:50:08;5.30;;;3.40;;
48205;SDS011;33995;48.202;16.260;2022-09-23T03:52:35;3.83;;;3.23;;
48205;SDS011;33995;48.202;16.260;2022-09-23T03:55:05;3.80;;;3.50;;
48205;SDS011;33995;48.202;16.260;2022-09-23T03:57:34;3.53;;;3.00;;
48205;SDS011;33995;48.202;16.260;2022-09-23T04:00:03;3.43;;;3.00;;
48205;SDS011;33995;48.202;16.260;2022-09-23T04:02:37;3.50;;;3.20;;
48205;SDS011;33995;48.202;16.260;2022-09-23T04:05:07;3.70;;;3.40;;
48205;SDS011;33995;48.202;16.260;2022-09-23T04:07:35;3.40;;;3.10;;
48205;SDS011;33995;48.202;16.260;2022-09-23T04:10:03;3.33;;;3.13;;
48205;SDS011;33995;48.202;16.260;2022-09-23T04:12:31;3.50;;;3.20;;
48205;SDS011;33995;48.202;16.260;2022-09-23T04:14:59;4.37;;;3.60;;
48205;SDS011;33995;48.202;16.260;2022-09-23T04:17:26;3.53;;;3.23;;
48205;SDS011;33995;48.202;16.260;2022-09-23T04:19:53;3.63;;;3.33;;
48205;SDS011;33995;48.202;16.260;2022-09-23T04:22:21;3.70;;;3.30;;
48205;SDS011;33995;48.202;16.260;2022-09-23T04:24:48;3.80;;;3.40;;
48205;SDS011;33995;48.202;16.260;2022-09-23T04:27:15;4.47;;;3.50;;
48205;SDS011;33995;48.202;16.260;2022-09-23T04:29:43;3.50;;;3.20;;
48205;SDS011;33995;48.202;16.260;2022-09-23T04:32:10;4.43;;;3.73;;
48205;SDS011;33995;48.202;16.260;2022-09-23T04:34:39;3.90;;;3.57;;
48205;SDS011;33995;48.202;16.260;2022-09-23T04:37:06;4.20;;;3.40;;
48205;SDS011;33995;48.202;16.260;2022-09-23T04:39:34;3.40;;;3.10;;
48205;SDS011;33995;48.202;16.260;2022-09-23T04:42:01;3.90;;;3.23;;
48205;SDS011;33995;48.202;16.260;2022-09-23T04:44:30;4.17;;;3.70;;
48205;SDS011;33995;48.202;16.260;2022-09-23T04:46:57;4.37;;;3.80;;
48205;SDS011;33995;48.202;16.260;2022-09-23T04:49:24;4.10;;;3.70;;
48205;SDS011;33995;48.202;16.260;2022-09-23T04:51:52;4.13;;;3.77;;
48205;SDS011;33995;48.202;16.260;2022-09-23T04:54:20;4.17;;;3.87;;
48205;SDS011;33995;48.202;16.260;2022-09-23T04:56:47;4.70;;;4.30;;
48205;SDS011;33995;48.202;16.260;2022-09-23T04:59:15;5.00;;;4.53;;
48205;SDS011;33995;48.202;16.260;2022-09-23T05:01:43;5.30;;;4.80;;
48205;SDS011;33995;48.202;16.260;2022-09-23T05:04:10;4.87;;;4.47;;
48205;SDS011;33995;48.202;16.260;2022-09-23T05:06:40;5.10;;;4.60;;
48205;SDS011;33995;48.202;16.260;2022-09-23T05:09:17;6.53;;;4.73;;
48205;SDS011;33995;48.202;16.260;2022-09-23T05:11:45;5.07;;;4.63;;
48205;SDS011;33995;48.202;16.260;2022-09-23T05:14:13;5.97;;;5.00;;
48205;SDS011;33995;48.202;16.260;2022-09-23T05:16:40;5.00;;;4.50;;
48205;SDS011;33995;48.202;16.260;2022-09-23T05:19:08;5.17;;;4.70;;
48205;SDS011;33995;48.202;16.260;2022-09-23T05:21:35;5.97;;;4.90;;
48205;SDS011;33995;48.202;16.260;2022-09-23T05:24:03;5.73;;;5.20;;
48205;SDS011;33995;48.202;16.260;2022-09-23T05:26:31;6.40;;;5.80;;
48205;SDS011;33995;48.202;16.260;2022-09-23T05:28:58;6.60;;;5.93;;
48205;SDS011;33995;48.202;16.260;2022-09-23T05:31:27;5.73;;;5.20;;
48205;SDS011;33995;48.202;16.260;2022-09-23T05:34:00;6.30;;;5.70;;
48205;SDS011;33995;48.202;16.260;2022-09-23T05:36:30;6.60;;;5.93;;
48205;SDS011;33995;48.202;16.260;2022-09-23T05:39:05;6.33;;;5.73;;
48205;SDS011;33995;48.202;16.260;2022-09-23T05:41:34;5.60;;;5.10;;
48205;SDS011;33995;48.202;16.260;2022-09-23T05:44:02;7.17;;;5.73;;
48205;SDS011;33995;48.202;16.260;2022-09-23T05:46:30;5.83;;;5.33;;
48205;SDS011;33995;48.202;16.260;2022-09-23T05:48:58;5.47;;;4.90;;
48205;SDS011;33995;48.202;16.260;2022-09-23T05:51:29;5.30;;;4.73;;
48205;SDS011;33995;48.202;16.260;2022-09-23T05:53:58;5.27;;;4.77;;
48205;SDS011;33995;48.202;16.260;2022-09-23T05:56:29;6.07;;;4.63;;
48205;SDS011;33995;48.202;16.260;2022-09-23T05:58:58;5.53;;;5.03;;
48205;SDS011;33995;48.202;16.260;2022-09-23T06:01:30;5.67;;;5.07;;
48205;SDS011;33995;48.202;16.260;2022-09-23T06:04:00;6.80;;;5.20;;
48205;SDS011;33995;48.202;16.260;2022-09-23T06:06:30;5.33;;;4.83;;
48205;SDS011;33995;48.202;16.260;2022-09-23T06:09:06;5.23;;;4.70;;
48205;SDS011;33995;48.202;16.260;2022-09-23T06:11:37;5.17;;;4.77;;
48205;SDS011;33995;48.202;16.260;2022-09-23T06:14:04;6.77;;;5.27;;
48205;SDS011;33995;48.202;16.260;2022-09-23T06:16:33;5.60;;;4.60;;
48205;SDS011;33995;48.202;16.260;2022-09-23T06:19:04;5.40;;;4.90;;
48205;SDS011;33995;48.202;16.260;2022-09-23T06:21:34;5.57;;;5.07;;
48205;SDS011;33995;48.202;16.260;2022-09-23T06:24:03;5.63;;;5.03;;
48205;SDS011;33995;48.202;16.260;2022-09-23T06:26:32;5.90;;;5.30;;
48205;SDS011;33995;48.202;16.260;2022-09-23T06:29:02;5.40;;;4.90;;
48205;SDS011;33995;48.202;16.260;2022-09-23T06:31:34;6.27;;;4.97;;
48205;SDS011;33995;48.202;16.260;2022-09-23T06:34:01;6.20;;;4.73;;
48205;SDS011;33995;48.202;16.260;2022-09-23T06:36:40;6.10;;;4.70;;
48205;SDS011;33995;48.202;16.260;2022-09-23T06:39:14;5.33;;;4.80;;
48205;SDS011;33995;48.202;16.260;2022-09-23T06:41:42;4.90;;;4.50;;
48205;SDS011;33995;48.202;16.260;2022-09-23T06:44:12;4.50;;;4.10;;
48205;SDS011;33995;48.202;16.260;2022-09-23T06:46:40;5.00;;;4.50;;
48205;SDS011;33995;48.202;16.260;2022-09-23T06:49:07;5.30;;;4.20;;
48205;SDS011;33995;48.202;16.260;2022-09-23T06:51:35;4.87;;;4.03;;
48205;SDS011;33995;48.202;16.260;2022-09-23T06:54:02;4.33;;;3.93;;
48205;SDS011;33995;48.202;16.260;2022-09-23T06:56:30;4.10;;;3.70;;
48205;SDS011;33995;48.202;16.260;2022-09-23T06:59:05;4.40;;;3.60;;
48205;SDS011;33995;48.202;16.260;2022-09-23T07:01:33;3.80;;;3.50;;
48205;SDS011;33995;48.202;16.260;2022-09-23T07:04:01;3.80;;;3.50;;
48205;SDS011;33995;48.202;16.260;2022-09-23T07:06:28;5.90;;;3.93;;
48205;SDS011;33995;48.202;16.260;2022-09-23T07:08:56;3.97;;;3.67;;
48205;SDS011;33995;48.202;16.260;2022-09-23T07:11:23;5.13;;;3.83;;
48205;SDS011;33995;48.202;16.260;2022-09-23T07:13:50;4.40;;;3.90;;
48205;SDS011;33995;48.202;16.260;2022-09-23T07:16:18;5.77;;;3.90;;
48205;SDS011;33995;48.202;16.260;2022-09-23T07:18:46;4.17;;;3.67;;
48205;SDS011;33995;48.202;16.260;2022-09-23T07:21:15;3.83;;;3.40;;
48205;SDS011;33995;48.202;16.260;2022-09-23T07:23:45;5.17;;;3.90;;
48205;SDS011;33995;48.202;16.260;2022-09-23T07:26:14;4.77;;;4.37;;
48205;SDS011;33995;48.202;16.260;2022-09-23T07:28:42;4.77;;;4.27;;
48205;SDS011;33995;48.202;16.260;2022-09-23T07:31:11;5.37;;;4.30;;
48205;SDS011;33995;48.202;16.260;2022-09-23T07:33:44;4.73;;;4.33;;
48205;SDS011;33995;48.202;16.260;2022-09-23T07:36:14;5.43;;;4.80;;
48205;SDS011;33995;48.202;16.260;2022-09-23T07:38:44;5.50;;;4.97;;
48205;SDS011;33995;48.202;16.260;2022-09-23T07:41:14;6.53;;;5.43;;
48205;SDS011;33995;48.202;16.260;2022-09-23T07:43:43;5.93;;;5.33;;
48205;SDS011;33995;48.202;16.260;2022-09-23T07:46:12;6.20;;;5.60;;
48205;SDS011;33995;48.202;16.260;2022-09-23T07:48:43;6.50;;;5.80;;
48205;SDS011;33995;48.202;16.260;2022-09-23T07:51:19;8.40;;;6.07;;
48205;SDS011;33995;48.202;16.260;2022-09-23T07:54:00;10.37;;;6.37;;
48205;SDS011;33995;48.202;16.260;2022-09-23T07:56:28;6.53;;;5.77;;
48205;SDS011;33995;48.202;16.260;2022-09-23T07:58:56;6.20;;;5.60;;
48205;SDS011;33995;48.202;16.260;2022-09-23T08:01:27;6.83;;;5.90;;
48205;SDS011;33995;48.202;16.260;2022-09-23T08:04:04;6.43;;;5.77;;
48205;SDS011;33995;48.202;16.260;2022-09-23T08:06:34;6.03;;;5.43;;
48205;SDS011;33995;48.202;16.260;2022-09-23T08:09:02;5.93;;;5.33;;
48205;SDS011;33995;48.202;16.260;2022-09-23T08:11:30;7.63;;;5.57;;
48205;SDS011;33995;48.202;16.260;2022-09-23T08:13:58;7.47;;;6.27;;
48205;SDS011;33995;48.202;16.260;2022-09-23T08:16:25;6.40;;;5.80;;
48205;SDS011;33995;48.202;16.260;2022-09-23T08:18:53;7.13;;;5.70;;
48205;SDS011;33995;48.202;16.260;2022-09-23T08:21:21;5.30;;;4.80;;
48205;SDS011;33995;48.202;16.260;2022-09-23T08:23:48;7.33;;;6.27;;
48205;SDS011;33995;48.202;16.260;2022-09-23T08:26:16;7.03;;;5.87;;
48205;SDS011;33995;48.202;16.260;2022-09-23T08:28:48;7.67;;;5.53;;
48205;SDS011;33995;48.202;16.260;2022-09-23T08:31:20;6.17;;;5.57;;
48205;SDS011;33995;48.202;16.260;2022-09-23T08:33:55;5.90;;;5.30;;
48205;SDS011;33995;48.202;16.260;2022-09-23T08:36:23;8.73;;;5.37;;
48205;SDS011;33995;48.202;16.260;2022-09-23T08:38:52;7.17;;;5.33;;
48205;SDS011;33995;48.202;16.260;2022-09-23T08:43:53;4.97;;;4.43;;
48205;SDS011;33995;48.202;16.260;2022-09-23T08:46:35;4.50;;;4.10;;
48205;SDS011;33995;48.202;16.260;2022-09-23T08:49:08;5.77;;;4.23;;
48205;SDS011;33995;48.202;16.260;2022-09-23T08:51:46;6.53;;;5.50;;
48205;SDS011;33995;48.202;16.260;2022-09-23T08:54:15;5.37;;;4.97;;
48205;SDS011;33995;48.202;16.260;2022-09-23T08:56:44;5.50;;;5.00;;
48205;SDS011;33995;48.202;16.260;2022-09-23T08:59:37;6.37;;;4.33;;
48205;SDS011;33995;48.202;16.260;2022-09-23T09:02:16;5.53;;;4.43;;
48205;SDS011;33995;48.202;16.260;2022-09-23T09:04:46;4.80;;;4.40;;
48205;SDS011;33995;48.202;16.260;2022-09-23T09:07:20;4.93;;;4.47;;
48205;SDS011;33995;48.202;16.260;2022-09-23T09:10:04;4.93;;;4.17;;
48205;SDS011;33995;48.202;16.260;2022-09-23T09:15:27;4.40;;;4.00;;
48205;SDS011;33995;48.202;16.260;2022-09-23T09:20:59;5.77;;;4.20;;
48205;SDS011;33995;48.202;16.260;2022-09-23T09:26:30;4.20;;;3.80;;
48205;SDS011;33995;48.202;16.260;2022-09-23T09:29:21;6.33;;;4.60;;
48205;SDS011;33995;48.202;16.260;2022-09-23T09:32:12;4.93;;;4.30;;
48205;SDS011;33995;48.202;16.260;2022-09-23T09:34:52;4.37;;;3.97;;
48205;SDS011;33995;48.202;16.260;2022-09-23T09:37:26;4.57;;;3.97;;
48205;SDS011;33995;48.202;16.260;2022-09-23T09:39:59;7.33;;;3.73;;
48205;SDS011;33995;48.202;16.260;2022-09-23T09:42:37;4.10;;;3.70;;
48205;SDS011;33995;48.202;16.260;2022-09-23T09:45:11;5.00;;;4.33;;
48205;SDS011;33995;48.202;16.260;2022-09-23T09:50:47;4.73;;;4.20;;
48205;SDS011;33995;48.202;16.260;2022-09-23T09:55:46;4.73;;;4.23;;
48205;SDS011;33995;48.202;16.260;2022-09-23T09:58:35;5.17;;;4.30;;
48205;SDS011;33995;48.202;16.260;2022-09-23T10:01:37;5.37;;;3.80;;
48205;SDS011;33995;48.202;16.260;2022-09-23T10:04:05;4.20;;;3.80;;
48205;SDS011;33995;48.202;16.260;2022-09-23T10:07:02;5.10;;;4.33;;
48205;SDS011;33995;48.202;16.260;2022-09-23T10:09:36;4.50;;;4.10;;
48205;SDS011;33995;48.202;16.260;2022-09-23T10:12:12;4.00;;;3.70;;
48205;SDS011;33995;48.202;16.260;2022-09-23T10:14:46;5.10;;;3.97;;
48205;SDS011;33995;48.202;16.260;2022-09-23T10:17:37;4.60;;;3.80;;
48205;SDS011;33995;48.202;16.260;2022-09-23T10:20:06;4.17;;;3.80;;
48205;SDS011;33995;48.202;16.260;2022-09-23T10:22:36;6.73;;;4.70;;
48205;SDS011;33995;48.202;16.260;2022-09-23T10:25:08;5.57;;;4.20;;
48205;SDS011;33995;48.202;16.260;2022-09-23T10:27:42;4.97;;;4.00;;
48205;SDS011;33995;48.202;16.260;2022-09-23T10:32:44;4.20;;;3.80;;
48205;SDS011;33995;48.202;16.260;2022-09-23T10:35:19;4.10;;;3.70;;
48205;SDS011;33995;48.202;16.260;2022-09-23T10:37:51;4.83;;;4.23;;
48205;SDS011;33995;48.202;16.260;2022-09-23T10:40:23;4.83;;;4.43;;
48205;SDS011;33995;48.202;16.260;2022-09-23T10:46:47;4.20;;;3.80;;
48205;SDS011;33995;48.202;16.260;2022-09-23T10:49:43;4.70;;;4.20;;
48205;SDS011;33995;48.202;16.260;2022-09-23T11:00:19;4.20;;;3.80;;
48205;SDS011;33995;48.202;16.260;2022-09-23T11:05:57;5.47;;;4.20;;
48205;SDS011;33995;48.202;16.260;2022-09-23T11:11:38;4.37;;;3.67;;
48205;SDS011;33995;48.202;16.260;2022-09-23T11:36:20;3.60;;;3.30;;
48205;SDS011;33995;48.202;16.260;2022-09-23T11:38:56;4.10;;;3.10;;
48205;SDS011;33995;48.202;16.260;2022-09-23T11:41:28;4.87;;;3.10;;
48205;SDS011;33995;48.202;16.260;2022-09-23T11:46:47;3.50;;;3.20;;
48205;SDS011;33995;48.202;16.260;2022-09-23T11:49:17;3.30;;;3.00;;
48205;SDS011;33995;48.202;16.260;2022-09-23T11:54:59;3.07;;;2.77;;
48205;SDS011;33995;48.202;16.260;2022-09-23T11:57:49;3.37;;;2.87;;
48205;SDS011;33995;48.202;16.260;2022-09-23T12:00:22;3.17;;;2.83;;
48205;SDS011;33995;48.202;16.260;2022-09-23T12:05:38;3.57;;;2.70;;
48205;SDS011;33995;48.202;16.260;2022-09-23T12:16:37;3.00;;;2.70;;
48205;SDS011;33995;48.202;16.260;2022-09-23T12:25:21;2.90;;;2.70;;
48205;SDS011;33995;48.202;16.260;2022-09-23T12:27:58;4.17;;;2.83;;
48205;SDS011;33995;48.202;16.260;2022-09-23T12:30:32;2.60;;;2.40;;
48205;SDS011;33995;48.202;16.260;2022-09-23T12:33:44;2.83;;;2.63;;
48205;SDS011;33995;48.202;16.260;2022-09-23T12:43:54;5.20;;;4.50;;
48205;SDS011;33995;48.202;16.260;2022-09-23T12:46:43;2.70;;;2.50;;
48205;SDS011;33995;48.202;16.260;2022-09-23T12:52:11;2.40;;;2.20;;
48205;SDS011;33995;48.202;16.260;2022-09-23T12:54:43;3.17;;;2.63;;
48205;SDS011;33995;48.202;16.260;2022-09-23T13:05:41;2.77;;;2.20;;
48205;SDS011;33995;48.202;16.260;2022-09-23T13:08:57;2.83;;;2.33;;
48205;SDS011;33995;48.202;16.260;2022-09-23T13:11:26;2.53;;;2.20;;
48205;SDS011;33995;48.202;16.260;2022-09-23T13:14:01;2.70;;;2.33;;
48205;SDS011;33995;48.202;16.260;2022-09-23T13:16:34;2.97;;;2.67;;
48205;SDS011;33995;48.202;16.260;2022-09-23T13:26:54;3.10;;;2.30;;
48205;SDS011;33995;48.202;16.260;2022-09-23T13:32:38;3.00;;;2.33;;
48205;SDS011;33995;48.202;16.260;2022-09-23T13:37:45;2.57;;;2.37;;
48205;SDS011;33995;48.202;16.260;2022-09-23T13:43:02;3.27;;;2.50;;
48205;SDS011;33995;48.202;16.260;2022-09-23T13:45:38;2.67;;;2.30;;
48205;SDS011;33995;48.202;16.260;2022-09-23T13:48:11;2.40;;;2.20;;
48205;SDS011;33995;48.202;16.260;2022-09-23T13:50:46;2.77;;;2.20;;
48205;SDS011;33995;48.202;16.260;2022-09-23T13:53:30;2.20;;;2.00;;
48205;SDS011;33995;48.202;16.260;2022-09-23T13:58:39;2.30;;;2.10;;
48205;SDS011;33995;48.202;16.260;2022-09-23T14:01:08;2.80;;;2.20;;
48205;SDS011;33995;48.202;16.260;2022-09-23T14:03:54;2.27;;;2.07;;
48205;SDS011;33995;48.202;16.260;2022-09-23T14:06:22;2.93;;;2.00;;
48205;SDS011;33995;48.202;16.260;2022-09-23T14:08:52;2.40;;;2.20;;
48205;SDS011;33995;48.202;16.260;2022-09-23T14:11:27;3.47;;;2.20;;
48205;SDS011;33995;48.202;16.260;2022-09-23T14:13:57;3.50;;;2.20;;
48205;SDS011;33995;48.202;16.260;2022-09-23T14:16:27;3.00;;;2.70;;
48205;SDS011;33995;48.202;16.260;2022-09-23T14:18:58;3.23;;;2.27;;
48205;SDS011;33995;48.202;16.260;2022-09-23T14:24:10;2.30;;;2.10;;
48205;SDS011;33995;48.202;16.260;2022-09-23T14:26:46;2.40;;;2.20;;
48205;SDS011;33995;48.202;16.260;2022-09-23T14:29:20;2.57;;;2.10;;
48205;SDS011;33995;48.202;16.260;2022-09-23T14:31:57;2.73;;;2.30;;
48205;SDS011;33995;48.202;16.260;2022-09-23T14:40:21;3.20;;;2.90;;
48205;SDS011;33995;48.202;16.260;2022-09-23T14:43:02;3.53;;;2.40;;
48205;SDS011;33995;48.202;16.260;2022-09-23T14:45:33;3.53;;;2.07;;
48205;SDS011;33995;48.202;16.260;2022-09-23T14:50:56;3.50;;;2.43;;
48205;SDS011;33995;48.202;16.260;2022-09-23T14:56:21;2.53;;;2.20;;
48205;SDS011;33995;48.202;16.260;2022-09-23T14:58:54;2.83;;;1.90;;
48205;SDS011;33995;48.202;16.260;2022-09-23T15:07:04;3.40;;;2.00;;
48205;SDS011;33995;48.202;16.260;2022-09-23T15:09:36;3.43;;;2.00;;
48205;SDS011;33995;48.202;16.260;2022-09-23T15:12:16;3.80;;;2.10;;
48205;SDS011;33995;48.202;16.260;2022-09-23T15:14:48;3.17;;;2.30;;
48205;SDS011;33995;48.202;16.260;2022-09-23T15:19:53;3.87;;;2.20;;
48205;SDS011;33995;48.202;16.260;2022-09-23T15:22:26;4.80;;;2.20;;
48205;SDS011;33995;48.202;16.260;2022-09-23T15:24:54;4.50;;;2.07;;
48205;SDS011;33995;48.202;16.260;2022-09-23T15:27:40;2.43;;;2.10;;
48205;SDS011;33995;48.202;16.260;2022-09-23T15:30:12;3.53;;;2.47;;
48205;SDS011;33995;48.202;16.260;2022-09-23T15:32:43;2.70;;;2.20;;
48205;SDS011;33995;48.202;16.260;2022-09-23T15:35:15;3.13;;;2.17;;
48205;SDS011;33995;48.202;16.260;2022-09-23T15:37:45;3.10;;;2.27;;
48205;SDS011;33995;48.202;16.260;2022-09-23T15:42:48;3.93;;;2.40;;
48205;SDS011;33995;48.202;16.260;2022-09-23T15:45:19;4.87;;;2.20;;
48205;SDS011;33995;48.202;16.260;2022-09-23T15:47:53;2.97;;;2.23;;
48205;SDS011;33995;48.202;16.260;2022-09-23T15:50:21;3.20;;;2.30;;
48205;SDS011;33995;48.202;16.260;2022-09-23T15:52:49;3.83;;;2.40;;
48205;SDS011;33995;48.202;16.260;2022-09-23T15:55:17;3.43;;;2.40;;
48205;SDS011;33995;48.202;16.260;2022-09-23T15:57:48;2.70;;;2.30;;
48205;SDS011;33995;48.202;16.260;2022-09-23T16:00:17;2.83;;;2.37;;
48205;SDS011;33995;48.202;16.260;2022-09-23T16:02:45;3.80;;;2.20;;
48205;SDS011;33995;48.202;16.260;2022-09-23T16:07:53;3.40;;;2.37;;
48205;SDS011;33995;48.202;16.260;2022-09-23T16:10:21;3.80;;;2.40;;
48205;SDS011;33995;48.202;16.260;2022-09-23T16:12:48;3.60;;;2.07;;
48205;SDS011;33995;48.202;16.260;2022-09-23T16:15:18;2.50;;;2.30;;
48205;SDS011;33995;48.202;16.260;2022-09-23T16:17:47;2.60;;;2.33;;
48205;SDS011;33995;48.202;16.260;2022-09-23T16:20:15;2.80;;;2.20;;
48205;SDS011;33995;48.202;16.260;2022-09-23T16:22:45;3.70;;;2.67;;
48205;SDS011;33995;48.202;16.260;2022-09-23T16:25:19;4.43;;;3.10;;
48205;SDS011;33995;48.202;16.260;2022-09-23T16:27:49;3.90;;;3.50;;
48205;SDS011;33995;48.202;16.260;2022-09-23T16:30:16;3.80;;;3.37;;
48205;SDS011;33995;48.202;16.260;2022-09-23T16:32:43;3.20;;;2.90;;
48205;SDS011;33995;48.202;16.260;2022-09-23T16:35:11;4.00;;;2.90;;
48205;SDS011;33995;48.202;16.260;2022-09-23T16:37:38;3.60;;;3.30;;
48205;SDS011;33995;48.202;16.260;2022-09-23T16:40:06;3.60;;;3.30;;
48205;SDS011;33995;48.202;16.260;2022-09-23T16:42:35;3.83;;;3.53;;
48205;SDS011;33995;48.202;16.260;2022-09-23T16:45:04;4.20;;;3.63;;
48205;SDS011;33995;48.202;16.260;2022-09-23T16:47:35;3.70;;;3.30;;
48205;SDS011;33995;48.202;16.260;2022-09-23T16:50:14;4.50;;;3.07;;
48205;SDS011;33995;48.202;16.260;2022-09-23T16:52:44;3.23;;;2.93;;
48205;SDS011;33995;48.202;16.260;2022-09-23T16:55:12;3.67;;;2.83;;
48205;SDS011;33995;48.202;16.260;2022-09-23T16:57:40;5.10;;;2.70;;
48205;SDS011;33995;48.202;16.260;2022-09-23T17:00:10;3.33;;;2.30;;
48205;SDS011;33995;48.202;16.260;2022-09-23T17:02:58;3.63;;;2.80;;
48205;SDS011;33995;48.202;16.260;2022-09-23T17:05:44;2.83;;;2.60;;
48205;SDS011;33995;48.202;16.260;2022-09-23T17:08:13;3.67;;;2.40;;
48205;SDS011;33995;48.202;16.260;2022-09-23T17:10:46;2.80;;;2.50;;
48205;SDS011;33995;48.202;16.260;2022-09-23T17:13:24;4.23;;;2.70;;
48205;SDS011;33995;48.202;16.260;2022-09-23T17:15:54;4.43;;;3.50;;
48205;SDS011;33995;48.202;16.260;2022-09-23T17:18:21;4.63;;;4.10;;
48205;SDS011;33995;48.202;16.260;2022-09-23T17:20:55;4.33;;;3.93;;
48205;SDS011;33995;48.202;16.260;2022-09-23T17:23:27;5.10;;;4.50;;
48205;SDS011;33995;48.202;16.260;2022-09-23T17:25:57;5.33;;;4.30;;
48205;SDS011;33995;48.202;16.260;2022-09-23T17:28:25;5.13;;;4.53;;
48205;SDS011;33995;48.202;16.260;2022-09-23T17:30:54;4.90;;;4.50;;
48205;SDS011;33995;48.202;16.260;2022-09-23T17:33:27;5.60;;;4.90;;
48205;SDS011;33995;48.202;16.260;2022-09-23T17:35:55;6.13;;;4.60;;
48205;SDS011;33995;48.202;16.260;2022-09-23T17:38:23;6.03;;;4.67;;
48205;SDS011;33995;48.202;16.260;2022-09-23T17:40:55;4.73;;;4.20;;
48205;SDS011;33995;48.202;16.260;2022-09-23T17:43:25;7.03;;;4.33;;
48205;SDS011;33995;48.202;16.260;2022-09-23T17:45:55;5.23;;;4.30;;
48205;SDS011;33995;48.202;16.260;2022-09-23T17:48:23;4.90;;;4.20;;
48205;SDS011;33995;48.202;16.260;2022-09-23T17:50:52;8.17;;;4.30;;
48205;SDS011;33995;48.202;16.260;2022-09-23T17:53:23;6.40;;;3.93;;
48205;SDS011;33995;48.202;16.260;2022-09-23T17:55:59;6.80;;;4.27;;
48205;SDS011;33995;48.202;16.260;2022-09-23T17:58:30;5.63;;;4.07;;
48205;SDS011;33995;48.202;16.260;2022-09-23T18:00:59;5.37;;;4.13;;
48205;SDS011;33995;48.202;16.260;2022-09-23T18:03:28;7.33;;;4.30;;
48205;SDS011;33995;48.202;16.260;2022-09-23T18:06:11;6.47;;;4.90;;
48205;SDS011;33995;48.202;16.260;2022-09-23T18:08:41;8.40;;;5.37;;
48205;SDS011;33995;48.202;16.260;2022-09-23T18:11:17;7.20;;;6.03;;
48205;SDS011;33995;48.202;16.260;2022-09-23T18:16:22;8.20;;;6.23;;
48205;SDS011;33995;48.202;16.260;2022-09-23T18:18:58;7.43;;;6.30;;
48205;SDS011;33995;48.202;16.260;2022-09-23T18:21:27;9.80;;;6.70;;
48205;SDS011;33995;48.202;16.260;2022-09-23T18:23:57;9.47;;;7.03;;
48205;SDS011;33995;48.202;16.260;2022-09-23T18:26:46;7.93;;;6.73;;
48205;SDS011;33995;48.202;16.260;2022-09-23T18:29:15;10.00;;;6.73;;